createdAt,value
2023-02-19T00:00:30.684Z,67.62
2023-02-19T00:01:36.817Z,67.39
2023-02-19T00:02:39.579Z,67.38
2023-02-19T00:03:44.053Z,67.22
2023-02-19T00:04:47.111Z,67.60
2023-02-19T00:05:49.988Z,67.71
2023-02-19T00:06:52.821Z,67.52
2023-02-19T00:07:55.618Z,67.52
2023-02-19T00:08:59.171Z,67.79
2023-02-19T00:10:01.984Z,67.61
2023-02-19T00:11:08.601Z,67.87
2023-02-19T00:12:12.014Z,67.84
2023-02-19T00:13:15.254Z,67.96
2023-02-19T00:14:20.941Z,67.86
2023-02-19T00:15:23.821Z,68.10
2023-02-19T00:16:30.495Z,67.99
2023-02-19T00:17:33.812Z,68.02
2023-02-19T00:18:36.935Z,68.12
2023-02-19T00:19:39.866Z,68.28
2023-02-19T00:20:43.335Z,68.43
2023-02-19T00:21:46.526Z,68.43
2023-02-19T00:22:49.334Z,68.29
2023-02-19T00:24:01.056Z,68.54
2023-02-19T00:25:04.013Z,68.62
2023-02-19T00:26:18.535Z,68.62
2023-02-19T00:27:21.722Z,68.58
2023-02-19T00:28:24.813Z,68.78
2023-02-19T00:29:28.014Z,68.90
2023-02-19T00:30:31.201Z,69.10
2023-02-19T00:31:36.207Z,69.34
2023-02-19T00:32:39.263Z,69.39
2023-02-19T00:33:42.460Z,69.44
2023-02-19T00:34:45.130Z,69.52
2023-02-19T00:35:48.018Z,69.58
2023-02-19T00:36:51.017Z,69.73
2023-02-19T00:37:53.865Z,69.80
2023-02-19T00:38:57.303Z,69.30
2023-02-19T00:40:00.062Z,69.33
2023-02-19T00:41:19.390Z,69.39
2023-02-19T00:42:22.192Z,69.50
2023-02-19T00:43:24.975Z,69.39
2023-02-19T00:44:28.014Z,69.50
2023-02-19T00:45:30.907Z,69.38
2023-02-19T00:46:39.383Z,69.38
2023-02-19T00:47:42.380Z,69.06
2023-02-19T00:48:45.434Z,69.28
2023-02-19T00:49:48.236Z,69.36
2023-02-19T00:50:51.223Z,69.36
2023-02-19T00:51:54.186Z,69.46
2023-02-19T00:52:56.910Z,69.46
2023-02-19T00:54:00.469Z,69.64
2023-02-19T00:55:04.061Z,69.68
2023-02-19T00:56:07.903Z,69.98
2023-02-19T00:57:10.701Z,70.14
2023-02-19T00:58:14.257Z,70.07
2023-02-19T00:59:17.169Z,69.77
2023-02-19T01:00:20.139Z,69.78
2023-02-19T01:01:23.461Z,70.00
2023-02-19T01:02:27.103Z,70.20
2023-02-19T01:03:30.225Z,70.31
2023-02-19T01:04:33.432Z,70.32
2023-02-19T01:05:36.175Z,69.86
2023-02-19T01:06:39.657Z,70.19
2023-02-19T01:07:42.462Z,70.32
2023-02-19T01:08:46.790Z,70.02
2023-02-19T01:09:49.858Z,70.12
2023-02-19T01:10:52.717Z,70.09
2023-02-19T01:11:55.590Z,70.05
2023-02-19T01:12:58.410Z,70.06
2023-02-19T01:14:02.635Z,70.14
2023-02-19T01:15:05.734Z,70.12
2023-02-19T01:16:14.687Z,70.15
2023-02-19T01:17:17.598Z,70.35
2023-02-19T01:18:20.867Z,70.37
2023-02-19T01:19:24.213Z,70.43
2023-02-19T01:20:27.772Z,70.40
2023-02-19T01:21:31.372Z,70.17
2023-02-19T01:22:34.225Z,70.27
2023-02-19T01:23:37.036Z,69.69
2023-02-19T01:24:39.962Z,69.70
2023-02-19T01:25:43.081Z,69.87
2023-02-19T01:26:46.149Z,69.85
2023-02-19T01:27:49.556Z,69.98
2023-02-19T01:28:53.562Z,69.97
2023-02-19T01:29:56.424Z,69.66
2023-02-19T01:31:07.454Z,69.73
2023-02-19T01:32:10.737Z,69.68
2023-02-19T01:33:13.807Z,69.63
2023-02-19T01:34:16.852Z,69.42
2023-02-19T01:35:19.692Z,68.99
2023-02-19T01:36:23.240Z,69.21
2023-02-19T01:37:26.083Z,69.30
2023-02-19T01:38:28.997Z,69.14
2023-02-19T01:39:32.160Z,69.04
2023-02-19T01:40:35.329Z,69.27
2023-02-19T01:41:40.890Z,69.19
2023-02-19T01:42:44.550Z,69.38
2023-02-19T01:44:05.014Z,69.44
2023-02-19T01:45:32.633Z,69.65
2023-02-19T01:46:39.832Z,69.80
2023-02-19T01:47:42.863Z,70.12
2023-02-19T01:48:46.816Z,70.32
2023-02-19T01:49:57.140Z,70.64
2023-02-19T01:51:11.150Z,70.84
2023-02-19T01:52:22.753Z,71.21
2023-02-19T01:53:30.002Z,71.54
2023-02-19T01:54:38.448Z,71.65
2023-02-19T01:55:42.798Z,71.82
2023-02-19T01:56:48.205Z,71.86
2023-02-19T01:57:55.272Z,72.01
2023-02-19T01:58:59.358Z,72.32
2023-02-19T02:00:10.365Z,72.19
2023-02-19T02:01:13.991Z,72.22
2023-02-19T02:02:17.257Z,72.44
2023-02-19T02:03:21.057Z,72.23
2023-02-19T02:04:24.392Z,72.46
2023-02-19T02:05:41.672Z,72.50
2023-02-19T02:06:50.746Z,72.18
2023-02-19T02:08:12.364Z,72.27
2023-02-19T02:09:35.768Z,72.23
2023-02-19T02:10:38.933Z,72.20
2023-02-19T02:11:50.609Z,71.55
2023-02-19T02:12:56.611Z,71.75
2023-02-19T02:13:59.569Z,71.83
2023-02-19T02:15:03.197Z,71.50
2023-02-19T02:16:15.146Z,71.52
2023-02-19T02:17:26.900Z,71.29
2023-02-19T02:18:45.051Z,71.33
2023-02-19T02:20:02.932Z,71.31
2023-02-19T02:21:21.933Z,71.51
2023-02-19T02:22:28.858Z,71.55
2023-02-19T02:23:57.912Z,71.49
2023-02-19T02:25:19.274Z,71.69
2023-02-19T02:26:42.745Z,71.91
2023-02-19T02:28:14.377Z,71.67
2023-02-19T02:29:23.191Z,71.80
2023-02-19T02:30:40.291Z,71.97
2023-02-19T02:31:50.246Z,72.18
2023-02-19T02:33:07.332Z,72.42
2023-02-19T02:34:24.867Z,72.39
2023-02-19T02:35:33.213Z,72.50
2023-02-19T02:36:47.399Z,72.34
2023-02-19T02:37:53.394Z,72.44
2023-02-19T02:38:58.607Z,72.73
2023-02-19T02:40:03.312Z,72.58
2023-02-19T02:41:07.036Z,72.77
2023-02-19T02:42:28.038Z,72.62
2023-02-19T02:43:31.357Z,72.50
2023-02-19T02:44:35.883Z,72.65
2023-02-19T02:45:40.164Z,72.95
2023-02-19T02:46:45.526Z,73.08
2023-02-19T02:47:53.211Z,73.08
2023-02-19T02:49:05.752Z,73.01
2023-02-19T02:50:25.879Z,72.86
2023-02-19T02:51:37.990Z,73.11
2023-02-19T02:53:03.703Z,73.34
2023-02-19T02:54:47.440Z,73.44
2023-02-19T02:55:53.520Z,73.85
2023-02-19T02:56:58.760Z,74.01
2023-02-19T02:58:02.653Z,74.06
2023-02-19T02:59:09.500Z,74.19
2023-02-19T03:00:13.461Z,74.37
2023-02-19T03:01:40.018Z,75.13
2023-02-19T03:02:44.318Z,75.53
2023-02-19T03:03:52.442Z,75.93
2023-02-19T03:05:31.343Z,76.09
2023-02-19T03:06:36.594Z,76.34
2023-02-19T03:07:45.612Z,76.37
2023-02-19T03:08:52.777Z,76.48
2023-02-19T03:09:58.684Z,76.62
2023-02-19T03:11:26.414Z,76.61
2023-02-19T03:12:49.663Z,76.58
2023-02-19T03:14:17.680Z,76.43
2023-02-19T03:15:40.390Z,76.25
2023-02-19T03:17:03.854Z,76.24
2023-02-19T03:18:28.763Z,76.02
2023-02-19T03:19:38.135Z,75.49
2023-02-19T03:20:46.894Z,75.29
2023-02-19T03:21:59.541Z,74.95
2023-02-19T03:23:02.618Z,74.88
2023-02-19T03:24:27.426Z,75.02
2023-02-19T03:25:51.263Z,74.83
2023-02-19T03:26:56.176Z,74.91
2023-02-19T03:28:01.977Z,74.81
2023-02-19T03:29:23.256Z,74.79
2023-02-19T03:30:30.810Z,74.81
2023-02-19T03:31:35.349Z,74.79
2023-02-19T03:32:46.644Z,74.58
2023-02-19T03:33:55.968Z,74.63
2023-02-19T03:35:06.317Z,74.67
2023-02-19T03:36:13.516Z,74.63
2023-02-19T03:37:25.379Z,74.68
2023-02-19T03:38:37.131Z,74.51
2023-02-19T03:39:44.658Z,74.47
2023-02-19T03:41:01.020Z,74.51
2023-02-19T03:42:12.749Z,74.60
2023-02-19T03:43:30.884Z,74.63
2023-02-19T03:44:52.559Z,74.73
2023-02-19T03:46:07.765Z,74.68
2023-02-19T03:47:25.692Z,74.75
2023-02-19T03:48:35.266Z,74.87
2023-02-19T03:49:55.308Z,74.95
2023-02-19T03:51:26.145Z,74.90
2023-02-19T03:52:42.019Z,75.25
2023-02-19T03:53:44.761Z,75.15
2023-02-19T03:54:50.910Z,75.21
2023-02-19T03:56:16.535Z,75.33
2023-02-19T03:57:32.107Z,75.04
2023-02-19T03:58:51.691Z,74.84
2023-02-19T04:00:38.192Z,74.82
2023-02-19T04:02:39.778Z,74.92
2023-02-19T04:04:01.857Z,74.76
2023-02-19T04:05:09.938Z,74.25
2023-02-19T04:06:18.061Z,74.28
2023-02-19T04:07:22.420Z,74.18
2023-02-19T04:08:27.191Z,74.28
2023-02-19T04:09:44.110Z,73.85
2023-02-19T04:10:48.021Z,73.82
2023-02-19T04:11:53.024Z,73.76
2023-02-19T04:13:01.661Z,73.99
2023-02-19T04:14:23.471Z,74.01
2023-02-19T04:15:31.545Z,74.08
2023-02-19T04:16:39.110Z,73.99
2023-02-19T04:17:54.837Z,73.90
2023-02-19T04:19:04.627Z,73.72
2023-02-19T04:20:10.381Z,73.79
2023-02-19T04:21:15.874Z,73.96
2023-02-19T04:22:20.301Z,74.21
2023-02-19T04:23:27.099Z,74.40
2023-02-19T04:24:43.072Z,74.51
2023-02-19T04:25:49.147Z,74.68
2023-02-19T04:26:53.275Z,74.85
2023-02-19T04:27:56.388Z,74.80
2023-02-19T04:28:59.505Z,74.61
2023-02-19T04:30:02.523Z,74.59
2023-02-19T04:31:07.051Z,74.66
2023-02-19T04:32:13.680Z,74.78
2023-02-19T04:33:16.601Z,74.78
2023-02-19T04:34:19.492Z,74.67
2023-02-19T04:35:22.407Z,74.43
2023-02-19T04:36:25.338Z,74.20
2023-02-19T04:37:28.159Z,74.38
2023-02-19T04:38:33.878Z,74.85
2023-02-19T04:39:36.820Z,74.92
2023-02-19T04:40:40.047Z,75.08
2023-02-19T04:41:42.978Z,75.30
2023-02-19T04:42:45.902Z,75.34
2023-02-19T04:43:48.942Z,75.42
2023-02-19T04:44:51.961Z,75.13
2023-02-19T04:45:54.917Z,75.38
2023-02-19T04:46:57.997Z,75.65
2023-02-19T04:48:01.401Z,75.90
2023-02-19T04:49:04.313Z,75.80
2023-02-19T04:50:08.054Z,75.91
2023-02-19T04:51:11.543Z,76.49
2023-02-19T04:52:14.665Z,76.73
2023-02-19T04:53:17.619Z,76.97
2023-02-19T04:54:20.560Z,77.19
2023-02-19T04:55:23.421Z,77.62
2023-02-19T04:56:26.425Z,78.07
2023-02-19T04:57:29.441Z,78.08
2023-02-19T04:58:32.264Z,78.37
2023-02-19T04:59:35.089Z,78.53
2023-02-19T05:00:37.964Z,78.90
2023-02-19T05:01:41.306Z,79.23
2023-02-19T05:02:44.199Z,79.54
2023-02-19T05:03:47.389Z,79.75
2023-02-19T05:04:50.352Z,80.06
2023-02-19T05:05:53.535Z,80.44
2023-02-19T05:06:56.450Z,80.46
2023-02-19T05:07:59.538Z,80.57
2023-02-19T05:09:02.850Z,80.84
2023-02-19T05:10:06.525Z,81.16
2023-02-19T05:11:12.635Z,81.33
2023-02-19T05:12:15.715Z,81.51
2023-02-19T05:13:18.521Z,81.50
2023-02-19T05:14:21.561Z,81.71
2023-02-19T05:15:24.302Z,81.63
2023-02-19T05:16:27.636Z,81.59
2023-02-19T05:17:34.600Z,81.70
2023-02-19T05:18:37.724Z,81.78
2023-02-19T05:19:40.678Z,81.90
2023-02-19T05:20:43.788Z,82.40
2023-02-19T05:21:46.681Z,82.59
2023-02-19T05:22:49.554Z,82.49
2023-02-19T05:23:53.420Z,82.45
2023-02-19T05:24:56.578Z,82.56
2023-02-19T05:25:59.496Z,82.63
2023-02-19T05:27:02.521Z,82.79
2023-02-19T05:28:17.532Z,82.84
2023-02-19T05:29:20.456Z,83.01
2023-02-19T05:30:23.344Z,83.29
2023-02-19T05:31:26.936Z,83.58
2023-02-19T05:32:30.036Z,83.69
2023-02-19T05:33:33.136Z,83.89
2023-02-19T05:34:36.051Z,84.29
2023-02-19T05:35:47.616Z,84.20
2023-02-19T05:36:50.278Z,84.10
2023-02-19T05:37:52.931Z,84.44
2023-02-19T05:38:57.365Z,84.92
2023-02-19T05:40:00.202Z,84.65
2023-02-19T05:41:09.751Z,84.65
2023-02-19T05:42:14.516Z,84.92
2023-02-19T05:43:18.211Z,85.14
2023-02-19T05:44:21.485Z,85.24
2023-02-19T05:45:24.309Z,85.75
2023-02-19T05:46:32.613Z,85.86
2023-02-19T05:47:35.715Z,85.96
2023-02-19T05:48:39.762Z,86.13
2023-02-19T05:49:42.655Z,85.89
2023-02-19T05:50:45.550Z,85.74
2023-02-19T05:51:51.353Z,85.68
2023-02-19T05:52:54.414Z,85.69
2023-02-19T05:53:57.935Z,85.68
2023-02-19T05:55:00.694Z,85.67
2023-02-19T05:56:03.955Z,85.89
2023-02-19T05:57:06.825Z,86.76
2023-02-19T05:58:09.717Z,87.52
2023-02-19T05:59:17.033Z,87.45
2023-02-19T06:00:20.840Z,87.57
2023-02-19T06:01:26.988Z,87.83
2023-02-19T06:02:29.761Z,88.07
2023-02-19T06:03:32.539Z,88.28
2023-02-19T06:04:35.348Z,88.32
2023-02-19T06:05:38.661Z,88.59
2023-02-19T06:06:42.749Z,89.35
2023-02-19T06:07:46.102Z,89.69
2023-02-19T06:08:50.666Z,89.94
2023-02-19T06:09:53.591Z,89.76
2023-02-19T06:10:56.413Z,89.61
2023-02-19T06:11:59.190Z,89.80
2023-02-19T06:13:01.896Z,90.33
2023-02-19T06:14:05.346Z,90.12
2023-02-19T06:15:08.302Z,90.55
2023-02-19T06:16:12.005Z,90.92
2023-02-19T06:17:14.801Z,90.97
2023-02-19T06:18:17.862Z,91.24
2023-02-19T06:19:21.030Z,90.91
2023-02-19T06:20:26.030Z,91.04
2023-02-19T06:21:29.122Z,91.10
2023-02-19T06:22:31.901Z,91.17
2023-02-19T06:23:35.177Z,91.46
2023-02-19T06:24:37.928Z,91.16
2023-02-19T06:25:40.632Z,91.19
2023-02-19T06:26:43.474Z,91.18
2023-02-19T06:27:46.680Z,91.08
2023-02-19T06:28:51.274Z,90.77
2023-02-19T06:29:54.229Z,90.78
2023-02-19T06:30:59.002Z,90.95
2023-02-19T06:32:02.406Z,91.10
2023-02-19T06:33:05.210Z,91.12
2023-02-19T06:34:07.976Z,91.31
2023-02-19T06:35:10.660Z,91.37
2023-02-19T06:36:19.210Z,91.50
2023-02-19T06:37:21.952Z,91.70
2023-02-19T06:38:24.697Z,91.62
2023-02-19T06:39:27.842Z,91.64
2023-02-19T06:40:30.555Z,91.66
2023-02-19T06:41:33.735Z,91.53
2023-02-19T06:42:36.471Z,90.98
2023-02-19T06:43:39.418Z,90.93
2023-02-19T06:44:42.380Z,90.98
2023-02-19T06:45:45.380Z,91.14
2023-02-19T06:46:48.316Z,91.19
2023-02-19T06:47:51.273Z,91.18
2023-02-19T06:48:54.471Z,90.94
2023-02-19T06:49:57.294Z,90.90
2023-02-19T06:51:00.797Z,90.91
2023-02-19T06:52:03.918Z,90.93
2023-02-19T06:53:06.789Z,90.76
2023-02-19T06:54:09.972Z,90.60
2023-02-19T06:55:12.866Z,90.62
2023-02-19T06:56:30.626Z,90.64
2023-02-19T06:57:33.657Z,90.44
2023-02-19T06:58:36.522Z,90.46
2023-02-19T06:59:39.211Z,90.57
2023-02-19T07:00:41.990Z,90.47
2023-02-19T07:01:46.411Z,90.36
2023-02-19T07:02:50.079Z,90.13
2023-02-19T07:03:53.916Z,90.10
2023-02-19T07:04:56.892Z,89.97
2023-02-19T07:06:00.998Z,89.90
2023-02-19T07:07:04.764Z,89.84
2023-02-19T07:08:07.588Z,89.75
2023-02-19T07:09:14.757Z,89.96
2023-02-19T07:10:18.085Z,89.96
2023-02-19T07:11:21.007Z,89.96
2023-02-19T07:12:24.313Z,89.92
2023-02-19T07:13:27.777Z,89.94
2023-02-19T07:14:30.817Z,89.93
2023-02-19T07:15:33.532Z,89.81
2023-02-19T07:16:37.207Z,89.77
2023-02-19T07:17:39.953Z,89.88
2023-02-19T07:18:43.179Z,89.87
2023-02-19T07:19:45.914Z,89.88
2023-02-19T07:20:48.856Z,89.88
2023-02-19T07:21:51.697Z,89.86
2023-02-19T07:22:55.212Z,89.82
2023-02-19T07:23:58.479Z,89.79
2023-02-19T07:25:01.239Z,89.52
2023-02-19T07:26:04.215Z,89.11
2023-02-19T07:27:07.137Z,89.13
2023-02-19T07:28:09.995Z,89.27
2023-02-19T07:29:12.888Z,89.14
2023-02-19T07:30:15.888Z,89.04
2023-02-19T07:31:21.179Z,88.40
2023-02-19T07:32:24.126Z,88.55
2023-02-19T07:33:26.982Z,88.80
2023-02-19T07:34:29.946Z,88.84
2023-02-19T07:35:32.804Z,88.76
2023-02-19T07:36:36.212Z,88.64
2023-02-19T07:37:40.615Z,88.41
2023-02-19T07:38:44.069Z,88.45
2023-02-19T07:39:46.999Z,88.10
2023-02-19T07:40:53.889Z,88.34
2023-02-19T07:41:58.437Z,88.58
2023-02-19T07:43:01.281Z,88.58
2023-02-19T07:44:04.513Z,88.66
2023-02-19T07:45:08.159Z,88.71
2023-02-19T07:46:13.192Z,88.57
2023-02-19T07:47:16.437Z,87.98
2023-02-19T07:48:19.595Z,87.68
2023-02-19T07:49:22.413Z,87.63
2023-02-19T07:50:25.303Z,87.71
2023-02-19T07:51:28.106Z,87.22
2023-02-19T07:52:31.208Z,86.90
2023-02-19T07:53:35.965Z,86.73
2023-02-19T07:54:38.876Z,86.74
2023-02-19T07:55:41.689Z,86.50
2023-02-19T07:56:44.628Z,86.13
2023-02-19T07:57:47.471Z,86.12
2023-02-19T07:58:50.382Z,86.15
2023-02-19T07:59:53.379Z,86.10
2023-02-19T08:00:56.353Z,85.82
2023-02-19T08:02:18.084Z,85.76
2023-02-19T08:03:21.294Z,85.77
2023-02-19T08:04:24.229Z,85.73
2023-02-19T08:05:32.384Z,85.29
2023-02-19T08:06:35.588Z,85.51
2023-02-19T08:07:38.534Z,85.85
2023-02-19T08:08:41.779Z,86.29
2023-02-19T08:09:44.540Z,87.05
2023-02-19T08:11:06.200Z,87.63
2023-02-19T08:12:29.452Z,87.93
2023-02-19T08:13:32.310Z,88.81
2023-02-19T08:14:35.120Z,89.68
2023-02-19T08:15:37.745Z,89.94
2023-02-19T08:16:43.377Z,90.52
2023-02-19T08:17:46.601Z,91.27
2023-02-19T08:18:49.682Z,91.65
2023-02-19T08:19:52.489Z,92.16
2023-02-19T08:20:56.405Z,92.84
2023-02-19T08:21:59.425Z,93.39
2023-02-19T08:23:02.613Z,93.72
2023-02-19T08:24:06.057Z,93.92
2023-02-19T08:25:09.030Z,94.03
2023-02-19T08:26:12.234Z,94.65
2023-02-19T08:27:15.089Z,95.43
2023-02-19T08:28:19.053Z,95.98
2023-02-19T08:29:21.875Z,96.41
2023-02-19T08:30:24.961Z,96.56
2023-02-19T08:31:28.097Z,96.63
2023-02-19T08:32:31.007Z,97.08
2023-02-19T08:33:34.056Z,97.43
2023-02-19T08:34:37.600Z,97.74
2023-02-19T08:35:42.189Z,98.15
2023-02-19T08:36:45.064Z,98.82
2023-02-19T08:37:48.162Z,99.34
2023-02-19T08:38:51.082Z,99.72
2023-02-19T08:39:58.624Z,99.93
2023-02-19T08:41:04.676Z,100.00
2023-02-19T08:42:07.731Z,100.00
2023-02-19T08:43:15.871Z,100.00
2023-02-19T08:44:18.797Z,100.00
2023-02-19T08:45:21.762Z,100.00
2023-02-19T08:46:25.024Z,100.00
2023-02-19T08:47:27.957Z,100.00
2023-02-19T08:48:31.105Z,100.00
2023-02-19T08:49:33.971Z,100.00
2023-02-19T08:50:38.338Z,100.00
2023-02-19T08:51:42.040Z,100.00
2023-02-19T08:52:45.190Z,100.00
2023-02-19T08:53:48.397Z,100.00
2023-02-19T08:54:51.460Z,100.00
2023-02-19T08:55:55.036Z,100.00
2023-02-19T08:56:58.620Z,100.00
2023-02-19T08:58:01.752Z,100.00
2023-02-19T08:59:04.661Z,100.00
2023-02-19T09:00:09.103Z,100.00
2023-02-19T09:01:14.818Z,100.00
2023-02-19T09:02:18.048Z,100.00
2023-02-19T09:03:20.903Z,100.00
2023-02-19T09:04:23.880Z,100.00
2023-02-19T09:05:26.945Z,100.00
2023-02-19T09:06:29.917Z,100.00
2023-02-19T09:07:33.049Z,100.00
2023-02-19T09:08:35.910Z,100.00
2023-02-19T09:09:39.636Z,100.00
2023-02-19T09:10:42.769Z,100.00
2023-02-19T09:11:47.396Z,100.00
2023-02-19T09:12:51.373Z,100.00
2023-02-19T09:13:56.803Z,100.00
2023-02-19T09:15:00.574Z,100.00
2023-02-19T09:16:05.281Z,100.00
2023-02-19T09:17:10.063Z,100.00
2023-02-19T09:18:13.868Z,100.00
2023-02-19T09:19:16.883Z,100.00
2023-02-19T09:20:20.240Z,100.00
2023-02-19T09:21:23.972Z,100.00
2023-02-19T09:22:26.967Z,100.00
2023-02-19T09:23:30.466Z,100.00
2023-02-19T09:24:33.713Z,100.00
2023-02-19T09:25:36.529Z,100.00
2023-02-19T09:26:39.430Z,100.00
2023-02-19T09:27:42.405Z,100.00
2023-02-19T09:28:45.263Z,100.00
2023-02-19T09:29:48.648Z,100.00
2023-02-19T09:30:51.547Z,100.00
2023-02-19T09:31:58.843Z,100.00
2023-02-19T09:33:01.720Z,100.00
2023-02-19T09:34:05.850Z,100.00
2023-02-19T09:35:08.865Z,100.00
2023-02-19T09:36:13.902Z,100.00
2023-02-19T09:37:17.825Z,100.00
2023-02-19T09:38:20.978Z,100.00
2023-02-19T09:39:24.790Z,100.00
2023-02-19T09:40:28.477Z,100.00
2023-02-19T09:41:35.824Z,100.00
2023-02-19T09:42:42.078Z,100.00
2023-02-19T09:43:45.341Z,100.00
2023-02-19T09:44:56.226Z,100.00
2023-02-19T09:46:05.328Z,100.00
2023-02-19T09:47:43.626Z,100.00
2023-02-19T09:48:46.766Z,100.00
2023-02-19T09:49:54.347Z,100.00
2023-02-19T09:50:59.780Z,100.00
2023-02-19T09:52:25.196Z,100.00
2023-02-19T09:53:40.486Z,100.00
2023-02-19T09:54:45.571Z,100.00
2023-02-19T09:55:49.338Z,100.00
2023-02-19T09:56:55.586Z,100.00
2023-02-19T09:58:02.596Z,100.00
2023-02-19T09:59:07.931Z,100.00
2023-02-19T10:00:29.489Z,100.00
2023-02-19T10:01:39.741Z,100.00
2023-02-19T10:02:43.316Z,100.00
2023-02-19T10:03:49.268Z,100.00
2023-02-19T10:04:53.418Z,100.00
2023-02-19T10:05:59.464Z,100.00
2023-02-19T10:07:04.141Z,100.00
2023-02-19T10:08:18.838Z,100.00
2023-02-19T10:09:27.448Z,100.00
2023-02-19T10:10:36.546Z,100.00
2023-02-19T10:11:40.548Z,100.00
2023-02-19T10:12:50.635Z,100.00
2023-02-19T10:14:16.091Z,100.00
2023-02-19T10:15:46.219Z,99.72
2023-02-19T10:16:50.578Z,99.60
2023-02-19T10:17:53.506Z,99.59
2023-02-19T10:18:56.858Z,99.63
2023-02-19T10:20:03.787Z,99.58
2023-02-19T10:21:07.277Z,99.89
2023-02-19T10:22:12.669Z,99.84
2023-02-19T10:23:16.964Z,100.00
2023-02-19T10:24:27.903Z,99.45
2023-02-19T10:25:33.808Z,99.69
2023-02-19T10:26:37.449Z,100.00
2023-02-19T10:27:40.563Z,99.37
2023-02-19T10:28:46.299Z,99.30
2023-02-19T10:29:51.367Z,97.89
2023-02-19T10:30:58.456Z,95.31
2023-02-19T10:32:25.234Z,95.41
2023-02-19T10:33:49.632Z,95.39
2023-02-19T10:35:24.928Z,94.45
2023-02-19T10:36:33.504Z,94.35
2023-02-19T10:37:44.886Z,91.27
2023-02-19T10:38:48.653Z,91.32
2023-02-19T10:39:52.481Z,91.48
2023-02-19T10:41:05.823Z,91.89
2023-02-19T10:42:25.804Z,92.61
2023-02-19T10:43:37.527Z,92.32
2023-02-19T10:44:47.727Z,91.43
2023-02-19T10:45:53.242Z,92.05
2023-02-19T10:47:00.085Z,91.75
2023-02-19T10:48:04.115Z,89.28
2023-02-19T10:49:26.944Z,89.29
2023-02-19T10:50:34.788Z,88.91
2023-02-19T10:51:41.465Z,87.72
2023-02-19T10:52:44.629Z,88.43
2023-02-19T10:54:03.052Z,87.80
2023-02-19T10:55:25.492Z,87.38
2023-02-19T10:56:31.576Z,87.67
2023-02-19T10:57:37.861Z,85.94
2023-02-19T10:58:45.408Z,86.13
2023-02-19T10:59:58.216Z,85.72
2023-02-19T11:01:23.522Z,84.26
2023-02-19T11:02:27.663Z,83.25
2023-02-19T11:03:30.556Z,82.96
2023-02-19T11:04:36.011Z,82.16
2023-02-19T11:05:41.669Z,80.88
2023-02-19T11:06:46.964Z,81.02
2023-02-19T11:07:56.344Z,79.22
2023-02-19T11:09:01.443Z,75.64
2023-02-19T11:10:07.634Z,76.84
2023-02-19T11:11:11.263Z,76.58
2023-02-19T11:12:35.490Z,76.90
2023-02-19T11:13:40.385Z,77.70
2023-02-19T11:14:45.879Z,75.50
2023-02-19T11:15:53.976Z,75.02
2023-02-19T11:17:00.804Z,75.32
2023-02-19T11:18:14.964Z,76.34
2023-02-19T11:19:29.560Z,76.36
2023-02-19T11:20:32.772Z,75.74
2023-02-19T11:21:36.212Z,74.38
2023-02-19T11:22:42.223Z,75.33
2023-02-19T11:23:47.769Z,74.80
2023-02-19T11:24:55.886Z,75.96
2023-02-19T11:26:06.170Z,75.98
2023-02-19T11:27:25.269Z,75.89
2023-02-19T11:28:40.190Z,76.17
2023-02-19T11:29:43.185Z,75.48
2023-02-19T11:30:48.039Z,76.07
2023-02-19T11:31:52.123Z,74.73
2023-02-19T11:32:55.237Z,75.14
2023-02-19T11:34:02.251Z,74.78
2023-02-19T11:35:22.791Z,74.83
2023-02-19T11:36:37.646Z,75.12
2023-02-19T11:37:59.227Z,74.86
2023-02-19T11:39:20.319Z,74.77
2023-02-19T11:40:34.881Z,73.93
2023-02-19T11:41:46.847Z,74.74
2023-02-19T11:43:15.996Z,75.18
2023-02-19T11:45:08.827Z,74.73
2023-02-19T11:46:36.795Z,72.82
2023-02-19T11:48:00.391Z,73.69
2023-02-19T11:49:21.967Z,73.30
2023-02-19T11:50:48.869Z,72.76
2023-02-19T11:52:25.014Z,71.94
2023-02-19T11:53:32.763Z,70.87
2023-02-19T11:54:52.932Z,68.90
2023-02-19T11:56:15.943Z,69.66
2023-02-19T11:57:35.125Z,68.32
2023-02-19T11:59:01.370Z,70.01
2023-02-19T12:00:16.740Z,69.83
2023-02-19T12:01:43.288Z,67.65
2023-02-19T12:02:47.686Z,66.53
2023-02-19T12:03:56.811Z,67.76
2023-02-19T12:04:59.746Z,66.67
2023-02-19T12:06:28.317Z,67.31
2023-02-19T12:07:50.092Z,68.16
2023-02-19T12:09:12.862Z,67.44
2023-02-19T12:10:47.706Z,67.58
2023-02-19T12:11:59.759Z,67.23
2023-02-19T12:13:47.636Z,65.94
2023-02-19T12:15:26.626Z,64.93
2023-02-19T12:16:34.531Z,65.19
2023-02-19T12:18:34.430Z,65.31
2023-02-19T12:19:50.044Z,66.32
2023-02-19T12:21:07.202Z,64.75
2023-02-19T12:22:25.741Z,64.76
2023-02-19T12:23:47.050Z,64.03
2023-02-19T12:24:50.087Z,64.36
2023-02-19T12:26:07.382Z,63.89
2023-02-19T12:27:19.248Z,64.70
2023-02-19T12:28:44.934Z,63.54
2023-02-19T12:30:17.741Z,63.53
2023-02-19T12:31:55.306Z,63.52
2023-02-19T12:33:13.442Z,63.26
2023-02-19T12:34:35.431Z,64.24
2023-02-19T12:36:05.228Z,63.86
2023-02-19T12:37:29.897Z,64.86
2023-02-19T12:39:11.366Z,65.07
2023-02-19T12:40:34.526Z,64.38
2023-02-19T12:42:07.615Z,65.09
2023-02-19T12:43:18.160Z,64.99
2023-02-19T12:44:36.496Z,64.47
2023-02-19T12:46:10.040Z,64.54
2023-02-19T12:47:29.443Z,63.87
2023-02-19T12:48:36.801Z,63.85
2023-02-19T12:49:50.008Z,64.98
2023-02-19T12:51:14.092Z,65.77
2023-02-19T12:52:33.722Z,65.36
2023-02-19T12:53:58.238Z,64.78
2023-02-19T12:55:27.056Z,65.12
2023-02-19T12:56:37.313Z,64.52
2023-02-19T12:57:41.329Z,65.93
2023-02-19T12:59:00.735Z,64.89
2023-02-19T13:00:41.768Z,64.96
2023-02-19T13:01:54.770Z,63.66
2023-02-19T13:03:04.666Z,62.34
2023-02-19T13:04:33.161Z,61.43
2023-02-19T13:06:03.688Z,61.81
2023-02-19T13:07:17.540Z,62.22
2023-02-19T13:08:24.991Z,63.57
2023-02-19T13:09:44.576Z,64.45
2023-02-19T13:11:12.989Z,65.22
2023-02-19T13:12:26.583Z,65.81
2023-02-19T13:13:55.763Z,66.37
2023-02-19T13:15:01.367Z,67.22
2023-02-19T13:16:13.907Z,67.55
2023-02-19T13:17:43.232Z,65.85
2023-02-19T13:18:51.779Z,66.79
2023-02-19T13:20:02.548Z,66.94
2023-02-19T13:21:06.636Z,65.54
2023-02-19T13:23:09.238Z,66.13
2023-02-19T13:24:22.222Z,65.68
2023-02-19T13:25:45.619Z,65.71
2023-02-19T13:27:04.110Z,64.22
2023-02-19T13:28:19.170Z,63.36
2023-02-19T13:29:48.257Z,63.66
2023-02-19T13:31:15.969Z,63.04
2023-02-19T13:33:02.086Z,63.06
2023-02-19T13:34:17.341Z,62.36
2023-02-19T13:35:40.056Z,62.31
2023-02-19T13:36:44.835Z,62.68
2023-02-19T13:37:50.425Z,62.61
2023-02-19T13:38:58.225Z,62.64
2023-02-19T13:40:28.262Z,63.11
2023-02-19T13:41:33.692Z,62.81
2023-02-19T13:42:38.021Z,63.15
2023-02-19T13:43:43.545Z,63.77
2023-02-19T13:44:51.125Z,63.70
2023-02-19T13:46:03.866Z,64.50
2023-02-19T13:47:45.848Z,64.79
2023-02-19T13:49:27.843Z,64.04
2023-02-19T13:50:33.989Z,64.57
2023-02-19T13:51:39.820Z,65.46
2023-02-19T13:52:44.777Z,65.08
2023-02-19T13:53:58.169Z,64.72
2023-02-19T13:55:43.054Z,65.30
2023-02-19T13:56:46.889Z,65.75
2023-02-19T13:57:50.665Z,68.39
2023-02-19T14:02:05.896Z,74.58
2023-02-19T14:03:30.326Z,76.99
2023-02-19T14:04:48.307Z,79.18
2023-02-19T14:06:02.056Z,80.28
2023-02-19T14:07:06.188Z,81.99
2023-02-19T14:08:10.097Z,83.25
2023-02-19T14:09:36.883Z,84.72
2023-02-19T14:10:58.206Z,85.96
2023-02-19T14:12:12.201Z,87.41
2023-02-19T14:13:49.789Z,88.33
2023-02-19T14:14:57.265Z,89.77
2023-02-19T14:16:01.722Z,90.58
2023-02-19T14:17:42.874Z,90.67
2023-02-19T14:18:47.929Z,91.45
2023-02-19T14:20:17.646Z,92.38
2023-02-19T14:21:35.722Z,92.51
2023-02-19T14:22:53.399Z,93.19
2023-02-19T14:23:59.870Z,93.40
2023-02-19T14:25:10.485Z,93.83
2023-02-19T14:26:18.349Z,93.83
2023-02-19T14:27:23.596Z,93.50
2023-02-19T14:28:36.465Z,93.64
2023-02-19T14:29:41.494Z,93.82
2023-02-19T14:30:56.494Z,92.55
2023-02-19T14:32:02.698Z,92.13
2023-02-19T14:33:12.846Z,93.16
2023-02-19T14:34:25.944Z,93.03
2023-02-19T14:35:43.486Z,92.03
2023-02-19T14:37:01.185Z,92.14
2023-02-19T14:38:06.967Z,92.52
2023-02-19T14:39:19.449Z,91.26
2023-02-19T14:40:38.158Z,91.06
2023-02-19T14:41:49.624Z,90.86
2023-02-19T14:43:00.893Z,91.16
2023-02-19T14:44:08.498Z,90.46
2023-02-19T14:45:17.910Z,90.42
2023-02-19T14:46:24.827Z,90.79
2023-02-19T14:47:35.176Z,89.95